Station Historical Data
Daily Summary for May 4, 2017 Units:  English    Metric   Both
« Previous Day
Next Day »
Daily Weekly Monthly Yearly Custom
  High: Low: Average:
Temperature: 70.5 °F 60.9 °F 67 °F
Dew Point: 63.4 °F 48.4 °F 54.7 °F
Humidity: 93% 46% 68%
Wind Speed: 1.0mph 0.0mph 0mph
Wind Gust: 5.0mph - -
Wind- - NW
Pressure: 29.96 in 29.58 in -
Precipitation: 0.25 in    
Historical Graphs
 
 
Tabular Data for May 4, 2017
Time Temperature Dew Point Pressure Wind Wind Speed Wind Gust Humidity Rainfall Rate (Hourly) Conditions
00:00 70.2 °F 49.6 °F 29.96 in Calm     48% 0.00 in SCT
00:15 70.2 °F 49.6 °F 29.96 in Calm     48% 0.00 in SCT
00:30 70.0 °F 49.9 °F 29.92 in Calm     49% 0.00 in SCT
00:45 69.8 °F 49.8 °F 29.92 in Calm     49% 0.00 in SCT
01:00 69.8 °F 49.8 °F 29.92 in Calm     49% 0.00 in SCT
01:15 69.6 °F 49.6 °F 29.92 in Calm     49% 0.00 in SCT
01:30 69.6 °F 49.6 °F 29.92 in Calm     49% 0.00 in SCT
01:45 70.2 °F 49.0 °F 29.92 in Calm   1.0 mph 47% 0.00 in SCT
02:00 70.5 °F 49.3 °F 29.91 in Calm   1.0 mph 47% 0.00 in SCT
02:15 70.5 °F 49.3 °F 29.91 in Calm   1.0 mph 47% 0.00 in SCT
02:30 70.5 °F 49.3 °F 29.91 in Calm   1.0 mph 47% 0.00 in SCT
02:45 70.5 °F 49.3 °F 29.91 in Calm   1.0 mph 47% 0.00 in SCT
03:00 70.5 °F 49.3 °F 29.91 in Calm   1.0 mph 47% 0.00 in SCT
03:15 70.1 °F 48.4 °F 29.89 in Calm   1.0 mph 46% 0.00 in SCT
03:30 69.6 °F 49.0 °F 29.88 in Calm   1.0 mph 48% 0.00 in SCT
03:45 69.2 °F 49.2 °F 29.89 in Calm   1.0 mph 49% 0.00 in SCT
04:00 69.2 °F 49.2 °F 29.89 in Calm     49% 0.00 in SCT
04:15 69.2 °F 49.2 °F 29.91 in Calm     49% 0.00 in SCT
04:30 69.6 °F 49.0 °F 29.92 in Calm     48% 0.00 in SCT
04:45 69.6 °F 49.0 °F 29.91 in Calm     48% 0.00 in SCT
05:00 69.6 °F 49.0 °F 29.91 in Calm     48% 0.00 in SCT
05:15 69.6 °F 49.0 °F 29.92 in Calm     48% 0.00 in SCT
05:30 69.2 °F 49.2 °F 29.93 in Calm     49% 0.00 in SCT
05:45 69.6 °F 49.0 °F 29.93 in Calm     48% 0.00 in SCT
06:00 69.6 °F 49.0 °F 29.93 in Calm     48% 0.00 in SCT
06:15 69.6 °F 49.0 °F 29.93 in Calm     48% 0.00 in SCT
06:30 69.2 °F 49.2 °F 29.93 in Calm     49% 0.00 in SCT
06:45 69.6 °F 49.0 °F 29.92 in Calm     48% 0.00 in SCT
07:00 69.6 °F 49.0 °F 29.92 in Calm     48% 0.00 in SCT
07:15 69.6 °F 49.0 °F 29.91 in Calm     48% 0.00 in SCT
07:30 69.6 °F 49.0 °F 29.92 in Calm     48% 0.00 in SCT
07:45 69.2 °F 49.2 °F 29.92 in Calm     49% 0.00 in SCT
08:00 69.6 °F 49.0 °F 29.92 in Calm     48% 0.00 in SCT
08:15 69.6 °F 49.0 °F 29.92 in Calm     48% 0.00 in SCT
08:30 69.6 °F 49.0 °F 29.92 in Calm     48% 0.00 in SCT
08:45 69.6 °F 49.0 °F 29.90 in Calm     48% 0.00 in SCT
09:00 69.2 °F 49.2 °F 29.89 in Calm     49% 0.00 in SCT
09:15 69.6 °F 49.0 °F 29.90 in Calm     48% 0.00 in SCT
09:30 69.2 °F 49.2 °F 29.87 in Calm     49% 0.00 in SCT
09:45 69.2 °F 49.2 °F 29.86 in Calm     49% 0.00 in SCT
10:00 69.2 °F 49.2 °F 29.85 in Calm     49% 0.00 in SCT
10:15 69.2 °F 49.2 °F 29.85 in Calm     49% 0.00 in SCT
10:30 69.6 °F 49.0 °F 29.84 in Calm     48% 0.00 in SCT
10:45 69.2 °F 49.2 °F 29.83 in Calm     49% 0.00 in SCT
11:00 69.2 °F 49.2 °F 29.84 in Calm     49% 0.00 in SCT
11:15 69.6 °F 49.0 °F 29.82 in Calm     48% 0.00 in SCT
11:30 69.2 °F 49.2 °F 29.75 in Calm     49% 0.00 in SCT
11:45 69.2 °F 49.2 °F 29.76 in Calm     49% 0.00 in SCT
12:00 69.2 °F 49.2 °F 29.77 in Calm     49% 0.00 in SCT
12:15 69.6 °F 49.0 °F 29.76 in Calm     48% 0.00 in SCT
12:30 69.2 °F 49.2 °F 29.77 in Calm     49% 0.00 in SCT
12:45 69.2 °F 49.2 °F 29.75 in Calm     49% 0.00 in SCT
13:00 60.9 °F 58.9 °F 29.75 in Calm   1.0 mph 93% 0.00 in SCT
13:15 63.0 °F 59.7 °F 29.72 in WNW 1.0 mph 5.0 mph 89% 0.00 in SCT
13:30 63.0 °F 59.4 °F 29.73 in Calm   3.0 mph 88% 0.00 in SCT
13:45 63.2 °F 59.9 °F 29.73 in Calm   1.0 mph 89% 0.00 in SCT
14:00 63.6 °F 60.0 °F 29.72 in Calm   5.0 mph 88% 0.00 in SCT
14:15 63.8 °F 60.5 °F 29.71 in Calm   2.0 mph 89% 0.00 in SCT
14:30 63.2 °F 59.9 °F 29.73 in Calm     89% 0.00 in SCT
14:45 64.0 °F 60.4 °F 29.70 in Calm   1.0 mph 88% 0.00 in SCT
15:00 64.3 °F 60.7 °F 29.70 in NW 1.0 mph 3.0 mph 88% 0.00 in SCT
15:15 64.3 °F 60.7 °F 29.69 in Calm   3.0 mph 88% 0.00 in SCT
15:30 64.0 °F 60.4 °F 29.70 in Calm     88% 0.00 in SCT
15:45 64.0 °F 60.4 °F 29.70 in Calm     88% 0.00 in SCT
16:00 64.0 °F 60.4 °F 29.70 in Calm     88% 0.00 in SCT
16:15 63.9 °F 61.2 °F 29.64 in Calm   3.0 mph 91% 0.03 in RA
16:30 64.0 °F 60.4 °F 29.70 in Calm     88% 0.00 in SCT
16:45 64.0 °F 60.4 °F 29.70 in Calm     88% 0.00 in SCT
17:00 63.9 °F 61.5 °F 29.62 in Calm   3.0 mph 92% 0.01 in SCT
17:15 63.9 °F 61.8 °F 29.62 in Calm   1.0 mph 93% 0.00 in SCT
17:30 63.9 °F 61.8 °F 29.62 in Calm     93% 0.00 in SCT
17:45 64.5 °F 62.4 °F 29.61 in Calm     93% 0.00 in SCT
18:00 64.4 °F 62.3 °F 29.61 in Calm     93% 0.00 in SCT
18:15 64.4 °F 62.3 °F 29.61 in Calm     93% 0.00 in SCT
18:30 65.2 °F 63.1 °F 29.59 in Calm   1.0 mph 93% 0.00 in SCT
18:45 65.5 °F 63.4 °F 29.58 in Calm   1.0 mph 93% 0.00 in SCT
19:00 65.2 °F 63.1 °F 29.59 in Calm   1.0 mph 93% 0.00 in SCT
19:15 65.5 °F 63.1 °F 29.59 in North 1.0 mph 1.0 mph 92% 0.00 in SCT
19:30 65.5 °F 63.1 °F 29.58 in Calm     92% 0.00 in SCT
19:45 65.3 °F 62.9 °F 29.59 in Calm     92% 0.00 in SCT
20:00 65.1 °F 62.7 °F 29.59 in Calm   1.0 mph 92% 0.00 in SCT
20:15 64.9 °F 62.2 °F 29.58 in Calm   2.0 mph 91% 0.00 in SCT
20:30 64.8 °F 62.1 °F 29.58 in Calm   2.0 mph 91% 0.02 in SCT
20:45 64.4 °F 62.0 °F 29.59 in Calm     92% 0.07 in RA
21:00 64.2 °F 61.8 °F 29.59 in Calm     92% 0.01 in SCT
21:15 63.1 °F 60.7 °F 29.61 in Calm     92% 0.01 in SCT
21:30 63.1 °F 60.7 °F 29.62 in Calm     92% 0.00 in SCT
21:45 63.1 °F 60.7 °F 29.62 in Calm     92% 0.00 in SCT
22:00 63.1 °F 60.7 °F 29.62 in Calm     92% 0.00 in SCT
22:15 63.1 °F 60.7 °F 29.63 in Calm     92% 0.00 in SCT
22:30 63.1 °F 60.7 °F 29.65 in Calm     92% 0.00 in SCT
22:45 63.1 °F 60.7 °F 29.64 in Calm     92% 0.00 in SCT
23:00 63.1 °F 60.7 °F 29.61 in Calm     92% 0.00 in SCT
23:15 63.1 °F 60.7 °F 29.62 in Calm     92% 0.00 in SCT
23:30 63.1 °F 60.7 °F 29.62 in Calm     92% 0.00 in SCT
23:45 63.1 °F 60.7 °F 29.60 in Calm     92% 0.00 in SCT
Piedmont Bend
Compliments of Weather Underground - 2 mb